Waynesfield, Ohio
Current Conditions -  °F | °C
As of 6:53 PM on Sunday 23 Nov 2014 (Local Time) from KAOH Reporting Station
Light Rain Light Rain  
Wind Chill: 57°   Ceiling: 4200
Heat Index: 57°   Visibility: 10mi
Dew Point: 45°   Wind: 21mph
Humidity: 64%   Direction: 130°SE
Pressure: 29.48"   Gusts: 31mph
Location:  40.6°N, 83.98°W
Report Text: KAOH 232353Z AUTO 13018G27KT 10SM -RA BKN042 OVC100 14/07 A2948 RMK AO2 PK WND 13027/2349 RAB07E19B39 SLP983 P0000 60000 T01390072 10156 20139 58054
Loading
Personal Weather Stations






























Interactive Weather Map New forecast layout! Learn more

10-Day Weather Forecast

Advertisements
Track Severe Weather on mobile